createdAt,value
2023-03-01T00:01:45.584Z,100238.00
2023-03-01T00:04:13.317Z,100241.80
2023-03-01T00:06:41.150Z,100241.60
2023-03-01T00:09:08.750Z,100236.40
2023-03-01T00:11:36.620Z,100228.20
2023-03-01T00:14:10.589Z,100224.00
2023-03-01T00:16:42.141Z,100228.60
2023-03-01T00:19:17.187Z,100227.00
2023-03-01T00:21:45.254Z,100227.00
2023-03-01T00:24:13.235Z,100234.40
2023-03-01T00:26:41.156Z,100231.20
2023-03-01T00:29:09.152Z,100228.20
2023-03-01T00:31:36.986Z,100231.00
2023-03-01T00:34:06.605Z,100230.40
2023-03-01T00:36:38.156Z,100231.60
2023-03-01T00:39:11.982Z,100235.00
2023-03-01T00:41:41.086Z,100228.20
2023-03-01T00:44:09.848Z,100226.00
2023-03-01T00:46:37.588Z,100226.00
2023-03-01T00:49:05.609Z,100218.40
2023-03-01T00:51:33.976Z,100211.60
2023-03-01T00:54:03.453Z,100209.60
2023-03-01T00:56:32.606Z,100209.20
2023-03-01T00:59:01.781Z,100206.80
2023-03-01T01:01:32.129Z,100207.80
2023-03-01T01:04:10.531Z,100204.60
2023-03-01T01:06:47.679Z,100202.60
2023-03-01T01:09:18.563Z,100206.20
2023-03-01T01:11:50.177Z,100208.20
2023-03-01T01:14:19.555Z,100209.60
2023-03-01T01:16:47.526Z,100217.20
2023-03-01T01:19:15.711Z,100206.60
2023-03-01T01:21:44.263Z,100208.00
2023-03-01T01:24:13.009Z,100204.60
2023-03-01T01:26:41.989Z,100204.20
2023-03-01T01:29:10.539Z,100189.80
2023-03-01T01:31:40.768Z,100180.80
2023-03-01T01:34:14.978Z,100180.20
2023-03-01T01:36:43.158Z,100180.00
2023-03-01T01:39:14.216Z,100182.00
2023-03-01T01:41:43.570Z,100190.20
2023-03-01T01:44:19.492Z,100188.80
2023-03-01T01:47:07.456Z,100190.80
2023-03-01T01:49:46.946Z,100188.20
2023-03-01T01:52:26.447Z,100186.40
2023-03-01T01:55:08.185Z,100176.20
2023-03-01T01:57:42.859Z,100173.40
2023-03-01T02:00:23.705Z,100171.00
2023-03-01T02:03:04.217Z,100171.00
2023-03-01T02:05:54.945Z,100170.60
2023-03-01T02:08:29.122Z,100165.60
2023-03-01T02:11:00.599Z,100166.60
2023-03-01T02:13:29.282Z,100160.40
2023-03-01T02:15:57.249Z,100172.00
2023-03-01T02:18:26.043Z,100169.20
2023-03-01T02:21:18.862Z,100164.00
2023-03-01T02:23:46.777Z,100168.40
2023-03-01T02:26:25.243Z,100161.80
2023-03-01T02:28:52.946Z,100167.80
2023-03-01T02:31:40.974Z,100166.00
2023-03-01T02:34:22.636Z,100164.40
2023-03-01T02:37:14.122Z,100162.20
2023-03-01T02:39:49.495Z,100165.80
2023-03-01T02:42:27.769Z,100166.40
2023-03-01T02:44:55.447Z,100165.80
2023-03-01T02:47:23.339Z,100168.20
2023-03-01T02:49:51.084Z,100170.60
2023-03-01T02:52:44.112Z,100173.40
2023-03-01T02:55:15.608Z,100175.60
2023-03-01T02:57:47.502Z,100176.60
2023-03-01T03:00:23.742Z,100183.40
2023-03-01T03:02:54.789Z,100169.00
2023-03-01T03:05:28.209Z,100173.60
2023-03-01T03:07:56.669Z,100173.00
2023-03-01T03:10:38.989Z,100179.20
2023-03-01T03:13:14.317Z,100188.40
2023-03-01T03:15:44.539Z,100185.20
2023-03-01T03:18:16.567Z,100180.60
2023-03-01T03:20:46.164Z,100170.80
2023-03-01T03:23:14.930Z,100168.40
2023-03-01T03:25:42.656Z,100164.00
2023-03-01T03:28:10.557Z,100154.40
2023-03-01T03:30:41.836Z,100150.20
2023-03-01T03:33:13.669Z,100150.20
2023-03-01T03:35:50.259Z,100150.80
2023-03-01T03:38:22.751Z,100149.20
2023-03-01T03:41:03.242Z,100141.80
2023-03-01T03:43:34.531Z,100146.40
2023-03-01T03:46:06.862Z,100149.80
2023-03-01T03:48:40.881Z,100141.00
2023-03-01T03:51:13.790Z,100147.00
2023-03-01T03:53:42.206Z,100145.60
2023-03-01T03:56:10.642Z,100141.20
2023-03-01T03:58:38.549Z,100142.80
2023-03-01T04:01:06.624Z,100143.80
2023-03-01T04:03:36.193Z,100144.40
2023-03-01T04:06:05.249Z,100137.00
2023-03-01T04:08:33.117Z,100137.20
2023-03-01T04:11:22.829Z,100135.40
2023-03-01T04:13:53.895Z,100130.00
2023-03-01T04:16:21.846Z,100135.40
2023-03-01T04:18:50.103Z,100137.20
2023-03-01T04:21:17.967Z,100133.80
2023-03-01T04:23:45.876Z,100131.60
2023-03-01T04:26:13.667Z,100135.60
2023-03-01T04:28:46.797Z,100129.80
2023-03-01T04:31:21.970Z,100138.60
2023-03-01T04:33:56.239Z,100137.40
2023-03-01T04:36:30.687Z,100142.20
2023-03-01T04:38:58.870Z,100144.20
2023-03-01T04:41:26.998Z,100138.40
2023-03-01T04:43:54.972Z,100139.00
2023-03-01T04:46:23.211Z,100138.60
2023-03-01T04:48:51.119Z,100137.80
2023-03-01T04:51:19.508Z,100135.20
2023-03-01T04:53:47.673Z,100133.00
2023-03-01T04:56:16.915Z,100125.00
2023-03-01T04:58:45.993Z,100129.00
2023-03-01T05:01:20.706Z,100115.80
2023-03-01T05:03:51.896Z,100116.40
2023-03-01T05:06:22.080Z,100116.60
2023-03-01T05:08:49.953Z,100123.20
2023-03-01T05:11:17.734Z,100121.40
2023-03-01T05:13:45.515Z,100131.20
2023-03-01T05:16:13.913Z,100132.20
2023-03-01T05:18:42.322Z,100136.60
2023-03-01T05:21:17.217Z,100135.20
2023-03-01T05:23:47.641Z,100133.40
2023-03-01T05:26:33.894Z,100131.20
2023-03-01T05:29:01.924Z,100133.20
2023-03-01T05:31:31.793Z,100142.00
2023-03-01T05:33:59.692Z,100140.20
2023-03-01T05:36:27.414Z,100139.40
2023-03-01T05:38:55.112Z,100142.60
2023-03-01T05:41:22.851Z,100140.20
2023-03-01T05:43:50.610Z,100139.40
2023-03-01T05:46:18.492Z,100143.00
2023-03-01T05:48:46.356Z,100150.20
2023-03-01T05:51:14.204Z,100149.40
2023-03-01T05:53:42.680Z,100149.80
2023-03-01T05:56:10.394Z,100153.00
2023-03-01T05:58:39.625Z,100154.20
2023-03-01T06:01:14.364Z,100154.20
2023-03-01T06:03:42.821Z,100152.60
2023-03-01T06:06:10.714Z,100146.20
2023-03-01T06:08:38.409Z,100154.60
2023-03-01T06:11:06.351Z,100153.80
2023-03-01T06:13:34.502Z,100154.80
2023-03-01T06:16:02.252Z,100156.20
2023-03-01T06:18:30.056Z,100155.00
2023-03-01T06:20:57.821Z,100155.20
2023-03-01T06:23:26.659Z,100157.00
2023-03-01T06:25:54.348Z,100153.00
2023-03-01T06:28:22.725Z,100155.20
2023-03-01T06:30:53.763Z,100153.00
2023-03-01T06:33:22.905Z,100149.00
2023-03-01T06:35:52.112Z,100146.00
2023-03-01T06:38:19.972Z,100145.40
2023-03-01T06:40:55.210Z,100137.00
2023-03-01T06:43:24.461Z,100139.00
2023-03-01T06:45:52.165Z,100135.00
2023-03-01T06:48:19.899Z,100137.00
2023-03-01T06:50:47.943Z,100126.40
2023-03-01T06:53:15.765Z,100122.60
2023-03-01T06:55:43.622Z,100116.40
2023-03-01T06:58:12.111Z,100111.80
2023-03-01T07:00:41.876Z,100116.20
2023-03-01T07:03:09.903Z,100118.00
2023-03-01T07:05:37.776Z,100115.40
2023-03-01T07:08:05.692Z,100118.40
2023-03-01T07:10:33.657Z,100117.00
2023-03-01T07:13:01.417Z,100126.20
2023-03-01T07:15:29.784Z,100117.80
2023-03-01T07:17:57.960Z,100120.60
2023-03-01T07:20:26.726Z,100127.00
2023-03-01T07:22:56.269Z,100123.40
2023-03-01T07:25:23.907Z,100124.60
2023-03-01T07:27:55.345Z,100130.00
2023-03-01T07:30:26.700Z,100135.80
2023-03-01T07:32:56.353Z,100127.20
2023-03-01T07:35:27.456Z,100122.20
2023-03-01T07:37:55.248Z,100125.40
2023-03-01T07:40:23.268Z,100125.20
2023-03-01T07:42:57.270Z,100122.40
2023-03-01T07:45:26.775Z,100121.40
2023-03-01T07:47:56.394Z,100115.00
2023-03-01T07:50:24.583Z,100105.80
2023-03-01T07:52:52.366Z,100110.40
2023-03-01T07:55:21.040Z,100108.00
2023-03-01T07:57:48.917Z,100107.60
2023-03-01T08:00:17.061Z,100108.00
2023-03-01T08:02:44.825Z,100105.80
2023-03-01T08:05:12.702Z,100092.80
2023-03-01T08:07:40.509Z,100091.20
2023-03-01T08:10:09.092Z,100092.20
2023-03-01T08:12:36.945Z,100089.80
2023-03-01T08:15:05.522Z,100094.20
2023-03-01T08:17:33.317Z,100091.60
2023-03-01T08:20:01.414Z,100085.60
2023-03-01T08:22:29.265Z,100084.20
2023-03-01T08:24:56.960Z,100083.80
2023-03-01T08:27:25.613Z,100082.40
2023-03-01T08:29:53.442Z,100081.40
2023-03-01T08:32:21.305Z,100083.00
2023-03-01T08:34:49.309Z,100081.00
2023-03-01T08:37:17.069Z,100082.80
2023-03-01T08:39:44.847Z,100092.40
2023-03-01T08:42:12.608Z,100084.00
2023-03-01T08:44:40.369Z,100086.40
2023-03-01T08:47:08.118Z,100087.80
2023-03-01T08:49:35.822Z,100087.00
2023-03-01T08:52:03.672Z,100078.60
2023-03-01T08:54:31.686Z,100079.80
2023-03-01T08:57:02.609Z,100070.00
2023-03-01T08:59:30.912Z,100080.40
2023-03-01T09:01:58.692Z,100081.20
2023-03-01T09:04:26.529Z,100078.20
2023-03-01T09:06:54.252Z,100078.20
2023-03-01T09:09:22.079Z,100079.00
2023-03-01T09:11:51.215Z,100069.60
2023-03-01T09:14:19.185Z,100064.40
2023-03-01T09:16:47.551Z,100064.40
2023-03-01T09:19:15.663Z,100056.20
2023-03-01T09:21:52.994Z,100051.20
2023-03-01T09:24:24.768Z,100053.20
2023-03-01T09:26:56.645Z,100051.40
2023-03-01T09:29:24.791Z,100054.40
2023-03-01T09:31:55.971Z,100054.80
2023-03-01T09:34:24.844Z,100054.40
2023-03-01T09:36:52.904Z,100058.40
2023-03-01T09:39:21.550Z,100055.80
2023-03-01T09:42:05.475Z,100052.20
2023-03-01T09:44:47.039Z,100050.20
2023-03-01T09:47:24.637Z,100050.60
2023-03-01T09:50:20.364Z,100053.20
2023-03-01T09:53:02.016Z,100055.60
2023-03-01T09:56:29.781Z,100055.40
2023-03-01T09:59:27.851Z,100048.60
2023-03-01T10:02:47.885Z,100045.40
2023-03-01T10:06:05.051Z,100043.20
2023-03-01T10:09:27.908Z,100047.80
2023-03-01T10:11:57.655Z,100046.00
2023-03-01T10:14:44.279Z,100046.40
2023-03-01T10:17:35.221Z,100051.00
2023-03-01T10:20:27.403Z,100044.20
2023-03-01T10:22:56.469Z,100043.60
2023-03-01T10:25:40.085Z,100048.20
2023-03-01T10:28:27.180Z,100049.20
2023-03-01T10:30:55.081Z,100048.00
2023-03-01T10:33:36.665Z,100043.00
2023-03-01T10:36:04.563Z,100036.20
2023-03-01T10:38:57.896Z,100029.80
2023-03-01T10:41:28.331Z,100027.40
2023-03-01T10:44:01.231Z,100025.80
2023-03-01T10:46:36.228Z,100020.80
2023-03-01T10:49:19.399Z,100016.20
2023-03-01T10:51:52.584Z,100016.80
2023-03-01T10:54:28.935Z,100005.80
2023-03-01T10:57:01.450Z,100003.20
2023-03-01T10:59:35.041Z,100003.80
2023-03-01T11:02:24.020Z,99999.80
2023-03-01T11:05:14.748Z,100002.40
2023-03-01T11:08:00.295Z,99999.80
2023-03-01T11:10:35.951Z,100004.80
2023-03-01T11:13:19.994Z,99999.40
2023-03-01T11:16:03.853Z,99998.20
2023-03-01T11:18:46.471Z,99995.60
2023-03-01T11:21:17.614Z,99996.80
2023-03-01T11:23:48.006Z,99992.20
2023-03-01T11:26:18.602Z,99983.20
2023-03-01T11:28:55.151Z,99986.80
2023-03-01T11:31:25.521Z,99979.60
2023-03-01T11:34:08.361Z,99981.80
2023-03-01T11:36:44.798Z,99976.20
2023-03-01T11:39:52.795Z,99981.60
2023-03-01T11:42:49.573Z,99978.20
2023-03-01T11:45:17.319Z,99967.40
2023-03-01T11:48:07.691Z,99961.80
2023-03-01T11:50:47.156Z,99955.00
2023-03-01T11:53:52.306Z,99953.80
2023-03-01T11:56:46.847Z,99950.00
2023-03-01T11:59:33.011Z,99953.20
2023-03-01T12:02:19.452Z,99948.00
2023-03-01T12:05:18.344Z,99953.40
2023-03-01T12:08:15.754Z,99952.20
2023-03-01T12:11:02.384Z,99948.60
2023-03-01T12:14:27.643Z,99943.00
2023-03-01T12:17:16.638Z,99935.80
2023-03-01T12:20:19.058Z,99936.60
2023-03-01T12:23:24.717Z,99932.80
2023-03-01T12:26:16.892Z,99929.60
2023-03-01T12:29:03.152Z,99925.80
2023-03-01T12:32:06.505Z,99917.40
2023-03-01T12:34:52.562Z,99914.20
2023-03-01T12:37:47.622Z,99910.40
2023-03-01T12:40:35.544Z,99903.80
2023-03-01T12:43:29.541Z,99897.20
2023-03-01T12:46:12.100Z,99901.80
2023-03-01T12:49:09.208Z,99904.60
2023-03-01T12:51:39.082Z,99903.00
2023-03-01T12:54:16.963Z,99905.60
2023-03-01T12:56:53.725Z,99906.00
2023-03-01T12:59:50.338Z,99896.40
2023-03-01T13:02:30.877Z,99898.60
2023-03-01T13:05:20.887Z,99896.60
2023-03-01T13:08:06.841Z,99893.60
2023-03-01T13:10:50.825Z,99889.20
2023-03-01T13:13:28.099Z,99881.80
2023-03-01T13:15:57.136Z,99879.00
2023-03-01T13:18:26.342Z,99880.80
2023-03-01T13:21:00.251Z,99873.40
2023-03-01T13:23:34.074Z,99871.20
2023-03-01T13:26:13.169Z,99873.20
2023-03-01T13:28:49.878Z,99871.40
2023-03-01T13:31:20.740Z,99864.20
2023-03-01T13:33:50.283Z,99868.80
2023-03-01T13:36:30.784Z,99875.80
2023-03-01T13:39:05.850Z,99868.00
2023-03-01T13:41:39.562Z,99865.40
2023-03-01T13:44:25.440Z,99866.00
2023-03-01T13:47:14.923Z,99865.00
2023-03-01T13:50:00.898Z,99860.00
2023-03-01T13:52:42.999Z,99865.40
2023-03-01T13:55:43.450Z,99858.00
2023-03-01T13:58:20.949Z,99857.00
2023-03-01T14:00:48.885Z,99860.00
2023-03-01T14:03:21.152Z,99853.20
2023-03-01T14:06:17.715Z,99859.40
2023-03-01T14:09:01.596Z,99849.00
2023-03-01T14:11:35.237Z,99844.60
2023-03-01T14:14:15.780Z,99841.20
2023-03-01T14:17:42.442Z,99837.20
2023-03-01T14:20:40.032Z,99836.20
2023-03-01T14:23:16.845Z,99840.40
2023-03-01T14:25:50.520Z,99838.60
2023-03-01T14:28:22.899Z,99835.40
2023-03-01T14:30:58.451Z,99827.20
2023-03-01T14:33:42.222Z,99824.20
2023-03-01T14:36:13.697Z,99818.40
2023-03-01T14:38:45.981Z,99817.60
2023-03-01T14:41:23.494Z,99822.60
2023-03-01T14:44:02.196Z,99822.60
2023-03-01T14:46:45.668Z,99823.60
2023-03-01T14:49:21.231Z,99817.40
2023-03-01T14:52:04.854Z,99813.60
2023-03-01T14:54:52.807Z,99803.20
2023-03-01T14:57:27.020Z,99800.40
2023-03-01T15:00:01.375Z,99802.60
2023-03-01T15:02:32.040Z,99800.60
2023-03-01T15:05:08.084Z,99797.60
2023-03-01T15:07:42.495Z,99792.20
2023-03-01T15:10:23.417Z,99789.40
2023-03-01T15:12:53.202Z,99783.80
2023-03-01T15:15:29.524Z,99781.00
2023-03-01T15:18:03.804Z,99782.80
2023-03-01T15:20:36.463Z,99787.40
2023-03-01T15:23:04.777Z,99787.00
2023-03-01T15:25:34.580Z,99786.80
2023-03-01T15:28:03.545Z,99792.40
2023-03-01T15:30:38.790Z,99796.20
2023-03-01T15:33:28.081Z,99803.00
2023-03-01T15:35:59.859Z,99801.80
2023-03-01T15:38:51.177Z,99800.00
2023-03-01T15:41:49.172Z,99799.40
2023-03-01T15:44:43.793Z,99793.20
2023-03-01T15:47:31.870Z,99795.00
2023-03-01T15:50:01.755Z,99801.80
2023-03-01T15:52:40.315Z,99808.00
2023-03-01T15:55:20.131Z,99802.00
2023-03-01T15:57:49.488Z,99806.40
2023-03-01T16:00:18.883Z,99804.60
2023-03-01T16:02:47.444Z,99813.80
2023-03-01T16:05:23.087Z,99818.20
2023-03-01T16:07:52.354Z,99820.60
2023-03-01T16:10:20.705Z,99820.40
2023-03-01T16:12:49.004Z,99823.60
2023-03-01T16:15:29.474Z,99826.00
2023-03-01T16:17:59.197Z,99832.80
2023-03-01T16:20:31.485Z,99834.20
2023-03-01T16:23:03.233Z,99833.80
2023-03-01T16:25:35.845Z,99834.80
2023-03-01T16:28:09.897Z,99834.00
2023-03-01T16:30:41.110Z,99837.40
2023-03-01T16:33:28.938Z,99843.20
2023-03-01T16:35:57.914Z,99849.00
2023-03-01T16:38:25.708Z,99846.40
2023-03-01T16:40:53.724Z,99846.20
2023-03-01T16:43:21.939Z,99853.60
2023-03-01T16:45:49.709Z,99849.60
2023-03-01T16:48:17.685Z,99848.00
2023-03-01T16:50:45.411Z,99842.80
2023-03-01T16:53:13.209Z,99848.40
2023-03-01T16:55:46.378Z,99850.60
2023-03-01T16:58:16.443Z,99853.00
2023-03-01T17:00:44.301Z,99853.60
2023-03-01T17:03:12.083Z,99857.00
2023-03-01T17:05:41.559Z,99861.00
2023-03-01T17:08:09.344Z,99858.00
2023-03-01T17:10:37.095Z,99860.00
2023-03-01T17:13:05.061Z,99868.20
2023-03-01T17:15:32.830Z,99861.20
2023-03-01T17:18:00.729Z,99854.20
2023-03-01T17:20:28.587Z,99860.40
2023-03-01T17:22:56.447Z,99858.20
2023-03-01T17:25:24.478Z,99858.20
2023-03-01T17:27:52.453Z,99856.80
2023-03-01T17:30:20.199Z,99858.20
2023-03-01T17:32:47.972Z,99854.60
2023-03-01T17:35:15.938Z,99859.60
2023-03-01T17:37:46.466Z,99860.40
2023-03-01T17:40:14.550Z,99857.80
2023-03-01T17:42:42.306Z,99864.80
2023-03-01T17:45:10.785Z,99866.40
2023-03-01T17:47:38.819Z,99860.60
2023-03-01T17:50:08.275Z,99863.60
2023-03-01T17:52:36.045Z,99864.60
2023-03-01T17:55:05.354Z,99861.80
2023-03-01T17:57:34.191Z,99868.40
2023-03-01T18:00:02.191Z,99867.00
2023-03-01T18:02:29.994Z,99865.20
2023-03-01T18:05:01.259Z,99868.60
2023-03-01T18:07:29.253Z,99869.60
2023-03-01T18:09:57.018Z,99869.00
2023-03-01T18:12:24.919Z,99867.80
2023-03-01T18:14:53.675Z,99873.00
2023-03-01T18:17:25.659Z,99865.00
2023-03-01T18:19:53.484Z,99875.20
2023-03-01T18:22:21.430Z,99875.60
2023-03-01T18:24:49.132Z,99870.20
2023-03-01T18:27:18.495Z,99871.60
2023-03-01T18:29:46.534Z,99875.40
2023-03-01T18:32:14.342Z,99874.40
2023-03-01T18:34:42.216Z,99876.80
2023-03-01T18:37:10.384Z,99873.80
2023-03-01T18:39:38.415Z,99875.80
2023-03-01T18:42:06.385Z,99864.00
2023-03-01T18:44:34.846Z,99868.40
2023-03-01T18:47:02.781Z,99869.00
2023-03-01T18:49:30.467Z,99868.20
2023-03-01T18:51:58.314Z,99872.40
2023-03-01T18:54:26.226Z,99861.40
2023-03-01T18:56:53.935Z,99857.80
2023-03-01T18:59:21.693Z,99858.80
2023-03-01T19:01:49.694Z,99860.20
2023-03-01T19:04:17.547Z,99861.40
2023-03-01T19:06:45.376Z,99863.40
2023-03-01T19:09:13.088Z,99867.00
2023-03-01T19:11:41.421Z,99867.40
2023-03-01T19:14:12.470Z,99862.60
2023-03-01T19:16:40.355Z,99858.60
2023-03-01T19:19:10.032Z,99858.40
2023-03-01T19:21:38.070Z,99853.00
2023-03-01T19:24:07.361Z,99849.40
2023-03-01T19:26:35.944Z,99851.40
2023-03-01T19:29:04.977Z,99849.60
2023-03-01T19:31:32.815Z,99850.00
2023-03-01T19:34:10.920Z,99852.60
2023-03-01T19:36:42.874Z,99852.40
2023-03-01T19:39:13.699Z,99863.80
2023-03-01T19:41:43.549Z,99859.00
2023-03-01T19:44:12.569Z,99866.20
2023-03-01T19:46:40.828Z,99863.60
2023-03-01T19:49:08.875Z,99864.00
2023-03-01T19:51:39.324Z,99862.60
2023-03-01T19:54:09.683Z,99856.20
2023-03-01T19:56:38.853Z,99856.00
2023-03-01T19:59:07.648Z,99859.60
2023-03-01T20:01:35.520Z,99860.00
2023-03-01T20:04:04.756Z,99855.80
2023-03-01T20:06:32.969Z,99853.80
2023-03-01T20:09:15.286Z,99861.00
2023-03-01T20:11:49.759Z,99860.80
2023-03-01T20:14:18.438Z,99854.60
2023-03-01T20:16:46.865Z,99862.00
2023-03-01T20:19:15.041Z,99857.20
2023-03-01T20:21:42.794Z,99867.60
2023-03-01T20:24:10.621Z,99855.40
2023-03-01T20:26:38.448Z,99857.40
2023-03-01T20:29:08.021Z,99848.20
2023-03-01T20:31:35.858Z,99839.60
2023-03-01T20:34:04.464Z,99852.00
2023-03-01T20:36:32.266Z,99852.00
2023-03-01T20:39:00.184Z,99849.60
2023-03-01T20:41:28.659Z,99846.80
2023-03-01T20:43:58.542Z,99844.80
2023-03-01T20:46:27.293Z,99845.60
2023-03-01T20:48:55.900Z,99847.60
2023-03-01T20:51:24.116Z,99848.60
2023-03-01T20:53:52.562Z,99851.00
2023-03-01T20:56:22.211Z,99851.40
2023-03-01T20:58:50.170Z,99848.80
2023-03-01T21:01:24.632Z,99850.80
2023-03-01T21:03:52.501Z,99854.40
2023-03-01T21:06:20.596Z,99851.60
2023-03-01T21:08:48.462Z,99863.20
2023-03-01T21:11:18.201Z,99859.00
2023-03-01T21:13:46.635Z,99861.20
2023-03-01T21:16:14.671Z,99859.00
2023-03-01T21:18:43.463Z,99856.40
2023-03-01T21:21:17.696Z,99856.00
2023-03-01T21:23:46.082Z,99850.80
2023-03-01T21:26:20.748Z,99845.60
2023-03-01T21:28:51.207Z,99855.60
2023-03-01T21:31:23.224Z,99852.40
2023-03-01T21:33:54.372Z,99858.60
2023-03-01T21:36:24.889Z,99856.00
2023-03-01T21:38:54.008Z,99855.20
2023-03-01T21:41:34.208Z,99860.40
2023-03-01T21:44:04.802Z,99857.80
2023-03-01T21:46:38.011Z,99852.00
2023-03-01T21:49:07.294Z,99859.40
2023-03-01T21:51:36.560Z,99857.20
2023-03-01T21:54:05.647Z,99852.80
2023-03-01T21:56:38.612Z,99853.60
2023-03-01T21:59:11.253Z,99856.20
2023-03-01T22:01:39.182Z,99852.40
2023-03-01T22:04:07.223Z,99856.60
2023-03-01T22:06:40.524Z,99854.00
2023-03-01T22:09:12.770Z,99851.20
2023-03-01T22:11:48.878Z,99854.00
2023-03-01T22:14:18.867Z,99850.20
2023-03-01T22:16:51.203Z,99845.40
2023-03-01T22:19:20.012Z,99841.20
2023-03-01T22:21:52.253Z,99840.20
2023-03-01T22:24:24.699Z,99841.40
2023-03-01T22:26:54.053Z,99841.80
2023-03-01T22:29:29.098Z,99848.20
2023-03-01T22:31:57.689Z,99845.60
2023-03-01T22:34:26.170Z,99840.00
2023-03-01T22:36:53.912Z,99847.60
2023-03-01T22:39:21.730Z,99845.20
2023-03-01T22:41:50.408Z,99835.80
2023-03-01T22:44:22.345Z,99839.00
2023-03-01T22:46:50.629Z,99835.00
2023-03-01T22:49:19.736Z,99831.60
2023-03-01T22:51:48.395Z,99832.80
2023-03-01T22:54:19.422Z,99835.00
2023-03-01T22:56:48.512Z,99840.40
2023-03-01T22:59:24.772Z,99833.60
2023-03-01T23:01:54.080Z,99828.60
2023-03-01T23:04:23.683Z,99823.60
2023-03-01T23:06:54.067Z,99824.20
2023-03-01T23:09:32.698Z,99822.20
2023-03-01T23:12:02.825Z,99823.20
2023-03-01T23:14:32.473Z,99819.20
2023-03-01T23:17:01.611Z,99821.60
2023-03-01T23:19:30.829Z,99825.00
2023-03-01T23:21:58.652Z,99825.00
2023-03-01T23:24:31.662Z,99827.00
2023-03-01T23:27:01.724Z,99817.80
2023-03-01T23:29:31.161Z,99819.40
2023-03-01T23:32:00.562Z,99815.60
2023-03-01T23:34:28.814Z,99822.40
2023-03-01T23:36:58.740Z,99825.60
2023-03-01T23:39:27.461Z,99826.80
2023-03-01T23:41:56.077Z,99817.80
2023-03-01T23:44:23.985Z,99828.60
2023-03-01T23:46:51.906Z,99830.20
2023-03-01T23:49:23.102Z,99833.80
2023-03-01T23:51:51.605Z,99832.00
2023-03-01T23:54:23.422Z,99832.00
2023-03-01T23:56:51.750Z,99830.20
2023-03-01T23:59:22.899Z,99832.80
